createdAt,value
2019-05-26T00:00:29.385Z,13.10
2019-05-26T00:02:56.268Z,13.10
2019-05-26T00:05:22.437Z,13.10
2019-05-26T00:07:48.645Z,13.10
2019-05-26T00:10:15.040Z,13.00
2019-05-26T00:12:42.593Z,13.00
2019-05-26T00:15:10.844Z,13.00
2019-05-26T00:17:37.044Z,13.00
2019-05-26T00:20:06.596Z,12.90
2019-05-26T00:22:32.756Z,12.90
2019-05-26T00:24:58.979Z,12.90
2019-05-26T00:27:25.254Z,12.90
2019-05-26T00:29:51.571Z,12.90
2019-05-26T00:32:17.886Z,12.80
2019-05-26T00:34:44.190Z,12.70
2019-05-26T00:37:11.169Z,12.70
2019-05-26T00:39:37.448Z,12.70
2019-05-26T00:42:03.680Z,12.70
2019-05-26T00:44:29.921Z,12.70
2019-05-26T00:46:56.184Z,12.70
2019-05-26T00:49:22.342Z,12.70
2019-05-26T00:51:48.552Z,12.70
2019-05-26T00:54:14.713Z,12.60
2019-05-26T00:56:40.893Z,12.60
2019-05-26T00:59:08.065Z,12.60
2019-05-26T01:01:34.300Z,12.60
2019-05-26T01:04:00.470Z,12.60
2019-05-26T01:06:26.941Z,12.60
2019-05-26T01:08:53.133Z,12.60
2019-05-26T01:11:19.300Z,12.60
2019-05-26T01:13:45.488Z,12.60
2019-05-26T01:16:11.768Z,12.70
2019-05-26T01:18:38.157Z,12.80
2019-05-26T01:21:04.310Z,12.80
2019-05-26T01:23:30.506Z,12.70
2019-05-26T01:25:56.685Z,12.60
2019-05-26T01:28:22.985Z,12.60
2019-05-26T01:30:49.209Z,12.60
2019-05-26T01:33:15.467Z,12.60
2019-05-26T01:35:42.276Z,12.60
2019-05-26T01:38:22.670Z,12.60
2019-05-26T01:40:40.792Z,12.60
2019-05-26T01:43:07.350Z,12.60
2019-05-26T01:45:33.624Z,12.60
2019-05-26T01:47:59.789Z,12.50
2019-05-26T01:50:25.997Z,12.50
2019-05-26T01:52:52.158Z,12.50
2019-05-26T01:55:18.337Z,12.60
2019-05-26T01:57:44.513Z,12.60
2019-05-26T02:00:10.987Z,12.60
2019-05-26T02:02:37.469Z,12.60
2019-05-26T02:05:04.034Z,12.60
2019-05-26T02:07:30.544Z,12.60
2019-05-26T02:09:56.844Z,12.60
2019-05-26T02:12:23.062Z,12.60
2019-05-26T02:14:49.225Z,12.70
2019-05-26T02:17:15.406Z,12.70
2019-05-26T02:19:41.568Z,12.60
2019-05-26T02:22:07.818Z,12.60
2019-05-26T02:24:33.983Z,12.50
2019-05-26T02:27:00.206Z,12.50
2019-05-26T02:29:26.368Z,12.50
2019-05-26T02:31:53.546Z,12.40
2019-05-26T02:34:19.717Z,12.40
2019-05-26T02:36:45.895Z,12.40
2019-05-26T02:39:12.074Z,12.40
2019-05-26T02:41:38.278Z,12.40
2019-05-26T02:44:04.849Z,12.40
2019-05-26T02:46:31.055Z,12.40
2019-05-26T02:48:57.231Z,12.40
2019-05-26T02:51:23.402Z,12.50
2019-05-26T02:53:49.669Z,12.40
2019-05-26T02:56:16.140Z,12.50
2019-05-26T02:58:42.322Z,12.40
2019-05-26T03:01:08.589Z,12.40
2019-05-26T03:03:35.176Z,12.40
2019-05-26T03:06:02.481Z,12.40
2019-05-26T03:08:29.359Z,12.40
2019-05-26T03:10:58.379Z,12.50
2019-05-26T03:13:46.451Z,12.50
2019-05-26T03:16:14.947Z,12.40
2019-05-26T03:18:41.422Z,12.40
2019-05-26T03:21:08.769Z,12.40
2019-05-26T03:23:34.948Z,12.40
2019-05-26T03:26:01.135Z,12.40
2019-05-26T03:28:27.293Z,12.40
2019-05-26T03:30:53.486Z,12.40
2019-05-26T03:33:19.649Z,12.50
2019-05-26T03:35:45.938Z,12.50
2019-05-26T03:38:12.199Z,12.50
2019-05-26T03:40:38.393Z,12.50
2019-05-26T03:43:05.019Z,12.50
2019-05-26T03:45:41.080Z,12.50
2019-05-26T03:48:07.254Z,12.50
2019-05-26T03:50:33.422Z,12.50
2019-05-26T03:52:59.605Z,12.60
2019-05-26T03:55:25.794Z,12.60
2019-05-26T03:57:51.968Z,12.70
2019-05-26T04:00:18.634Z,12.80
2019-05-26T04:02:44.810Z,12.90
2019-05-26T04:05:11.376Z,12.80
2019-05-26T04:07:37.572Z,12.90
2019-05-26T04:10:07.482Z,12.90
2019-05-26T04:12:33.693Z,12.90
2019-05-26T04:14:59.975Z,12.90
2019-05-26T04:17:26.183Z,12.90
2019-05-26T04:19:52.452Z,13.00
2019-05-26T04:22:18.721Z,13.00
2019-05-26T04:24:46.046Z,13.00
2019-05-26T04:27:12.221Z,13.00
2019-05-26T04:29:39.446Z,13.00
2019-05-26T04:32:05.630Z,13.00
2019-05-26T04:34:31.818Z,13.00
2019-05-26T04:36:58.060Z,13.00
2019-05-26T04:39:24.265Z,12.90
2019-05-26T04:41:50.446Z,13.00
2019-05-26T04:44:16.634Z,13.00
2019-05-26T04:46:42.820Z,13.10
2019-05-26T04:49:08.986Z,13.20
2019-05-26T04:51:35.167Z,13.10
2019-05-26T04:54:03.111Z,13.20
2019-05-26T04:56:29.461Z,13.20
2019-05-26T04:58:55.964Z,13.20
2019-05-26T05:01:22.374Z,13.20
2019-05-26T05:03:48.822Z,13.30
2019-05-26T05:06:15.281Z,13.30
2019-05-26T05:08:41.569Z,13.30
2019-05-26T05:11:07.748Z,13.30
2019-05-26T05:13:33.936Z,13.30
2019-05-26T05:16:00.206Z,13.40
2019-05-26T05:18:27.393Z,13.40
2019-05-26T05:20:53.564Z,13.40
2019-05-26T05:23:19.745Z,13.40
2019-05-26T05:25:45.956Z,13.50
2019-05-26T05:28:12.137Z,13.50
2019-05-26T05:30:38.316Z,13.60
2019-05-26T05:33:04.525Z,13.70
2019-05-26T05:35:30.675Z,13.80
2019-05-26T05:37:56.864Z,13.70
2019-05-26T05:40:23.030Z,13.80
2019-05-26T05:42:50.349Z,13.90
2019-05-26T05:45:16.925Z,13.90
2019-05-26T05:47:43.145Z,13.90
2019-05-26T05:50:09.726Z,13.80
2019-05-26T05:52:35.980Z,13.80
2019-05-26T05:55:03.276Z,13.70
2019-05-26T05:57:29.466Z,13.70
2019-05-26T05:59:55.641Z,13.90
2019-05-26T06:02:21.841Z,14.10
2019-05-26T06:04:48.037Z,14.20
2019-05-26T06:07:14.241Z,14.30
2019-05-26T06:09:40.438Z,14.20
2019-05-26T06:12:06.594Z,14.30
2019-05-26T06:14:32.921Z,14.50
2019-05-26T06:16:59.177Z,14.60
2019-05-26T06:19:25.326Z,14.60
2019-05-26T06:21:51.548Z,14.70
2019-05-26T06:24:17.833Z,14.70
2019-05-26T06:26:43.999Z,14.70
2019-05-26T06:29:10.191Z,14.70
2019-05-26T06:31:36.352Z,14.90
2019-05-26T06:34:02.880Z,15.10
2019-05-26T06:36:29.049Z,15.20
2019-05-26T06:38:55.242Z,15.30
2019-05-26T06:41:32.771Z,15.60
2019-05-26T06:43:49.514Z,15.80
2019-05-26T06:46:16.710Z,16.00
2019-05-26T06:48:42.881Z,16.10
2019-05-26T06:51:09.214Z,16.10
2019-05-26T06:53:37.435Z,16.10
2019-05-26T06:56:03.607Z,16.10
2019-05-26T06:58:29.778Z,16.30
2019-05-26T07:00:55.938Z,16.60
2019-05-26T07:03:22.173Z,16.80
2019-05-26T07:05:48.389Z,17.00
2019-05-26T07:08:14.552Z,17.60
2019-05-26T07:10:40.836Z,18.00
2019-05-26T07:13:07.028Z,18.10
2019-05-26T07:15:33.198Z,18.10
2019-05-26T07:17:59.477Z,18.00
2019-05-26T07:20:25.647Z,17.90
2019-05-26T07:22:51.870Z,18.30
2019-05-26T07:25:18.037Z,18.50
2019-05-26T07:27:44.229Z,18.70
2019-05-26T07:30:11.699Z,18.80
2019-05-26T07:32:37.872Z,18.50
2019-05-26T07:35:05.859Z,18.40
2019-05-26T07:37:32.039Z,18.40
2019-05-26T07:39:58.217Z,18.60
2019-05-26T07:42:24.407Z,18.90
2019-05-26T07:44:50.585Z,19.30
2019-05-26T07:47:16.755Z,19.60
2019-05-26T07:49:42.938Z,19.90
2019-05-26T07:52:09.088Z,20.60
2019-05-26T07:54:35.285Z,21.20
2019-05-26T07:57:01.448Z,21.20
2019-05-26T07:59:27.718Z,21.10
2019-05-26T08:01:53.993Z,21.40
2019-05-26T08:04:20.197Z,22.00
2019-05-26T08:06:46.377Z,23.00
2019-05-26T08:09:12.615Z,23.10
2019-05-26T08:11:38.822Z,23.00
2019-05-26T08:14:05.085Z,22.70
2019-05-26T08:16:31.654Z,21.90
2019-05-26T08:18:57.932Z,21.70
2019-05-26T08:21:24.106Z,21.70
2019-05-26T08:23:50.401Z,22.30
2019-05-26T08:26:16.556Z,22.90
2019-05-26T08:28:42.741Z,22.50
2019-05-26T08:31:08.932Z,23.10
2019-05-26T08:33:35.105Z,23.60
2019-05-26T08:36:01.348Z,24.10
2019-05-26T08:38:27.603Z,24.30
2019-05-26T08:40:53.818Z,25.00
2019-05-26T08:43:19.999Z,25.10
2019-05-26T08:45:46.614Z,25.40
2019-05-26T08:48:13.064Z,25.70
2019-05-26T08:50:39.233Z,25.90
2019-05-26T08:53:05.420Z,26.80
2019-05-26T08:55:31.576Z,28.10
2019-05-26T08:57:57.811Z,28.90
2019-05-26T09:00:24.102Z,28.40
2019-05-26T09:02:50.530Z,28.70
2019-05-26T09:05:17.385Z,30.00
2019-05-26T09:07:43.578Z,29.50
2019-05-26T09:10:12.557Z,30.20
2019-05-26T09:12:38.749Z,30.90
2019-05-26T09:15:06.941Z,31.60
2019-05-26T09:17:33.206Z,31.30
2019-05-26T09:19:59.389Z,31.40
2019-05-26T09:22:25.562Z,31.30
2019-05-26T09:24:51.766Z,32.60
2019-05-26T09:27:17.946Z,32.80
2019-05-26T09:29:44.211Z,34.90
2019-05-26T09:32:10.813Z,37.10
2019-05-26T09:34:36.989Z,37.40
2019-05-26T09:37:03.173Z,37.20
2019-05-26T09:39:29.365Z,37.50
2019-05-26T09:41:55.607Z,38.70
2019-05-26T09:44:21.794Z,38.90
2019-05-26T09:46:48.090Z,40.30
2019-05-26T09:49:14.557Z,38.60
2019-05-26T09:51:40.746Z,37.90
2019-05-26T09:54:06.900Z,36.60
2019-05-26T09:56:33.081Z,37.50
2019-05-26T09:58:59.256Z,37.80
2019-05-26T10:01:26.653Z,38.30
2019-05-26T10:03:52.836Z,39.00
2019-05-26T10:06:19.012Z,37.70
2019-05-26T10:08:45.221Z,39.10
2019-05-26T10:11:11.401Z,37.80
2019-05-26T10:13:37.568Z,35.70
2019-05-26T10:16:03.960Z,34.90
2019-05-26T10:18:30.148Z,32.50
2019-05-26T10:20:56.655Z,31.20
2019-05-26T10:23:22.965Z,30.10
2019-05-26T10:25:49.129Z,28.90
2019-05-26T10:28:15.312Z,27.80
2019-05-26T10:30:41.477Z,25.60
2019-05-26T10:33:07.668Z,26.10
2019-05-26T10:35:33.929Z,25.90
2019-05-26T10:38:00.128Z,25.90
2019-05-26T10:40:26.310Z,25.80
2019-05-26T10:42:52.500Z,26.00
2019-05-26T10:45:19.889Z,25.70
2019-05-26T10:47:46.338Z,25.40
2019-05-26T10:50:14.117Z,25.50
2019-05-26T10:52:40.290Z,25.40
2019-05-26T10:55:07.064Z,24.90
2019-05-26T10:57:33.280Z,25.70
2019-05-26T10:59:59.511Z,25.70
2019-05-26T11:02:25.685Z,25.00
2019-05-26T11:04:52.265Z,25.10
2019-05-26T11:07:18.458Z,25.00
2019-05-26T11:09:44.656Z,25.80
2019-05-26T11:12:10.817Z,27.90
2019-05-26T11:14:37.147Z,28.50
2019-05-26T11:17:03.571Z,29.40
2019-05-26T11:19:29.900Z,29.70
2019-05-26T11:21:56.154Z,32.00
2019-05-26T11:24:22.322Z,32.50
2019-05-26T11:26:48.666Z,33.10
2019-05-26T11:29:14.946Z,31.40
2019-05-26T11:31:41.124Z,34.90
2019-05-26T11:34:07.318Z,36.00
2019-05-26T11:36:33.555Z,38.10
2019-05-26T11:38:59.813Z,39.90
2019-05-26T11:41:26.010Z,36.50
2019-05-26T11:43:52.192Z,33.00
2019-05-26T11:46:18.458Z,30.60
2019-05-26T11:48:44.879Z,28.30
2019-05-26T11:51:11.040Z,29.20
2019-05-26T11:53:37.234Z,31.10
2019-05-26T11:56:03.431Z,30.10
2019-05-26T11:58:29.622Z,29.10
2019-05-26T12:00:55.780Z,28.40
2019-05-26T12:03:21.977Z,27.50
2019-05-26T12:05:48.138Z,27.20
2019-05-26T12:08:14.348Z,27.20
2019-05-26T12:10:40.517Z,27.60
2019-05-26T12:13:06.721Z,28.30
2019-05-26T12:15:32.953Z,28.10
2019-05-26T12:17:59.133Z,27.30
2019-05-26T12:20:25.305Z,25.10
2019-05-26T12:22:51.508Z,25.00
2019-05-26T12:25:17.952Z,24.90
2019-05-26T12:27:44.205Z,25.00
2019-05-26T12:30:32.239Z,24.70
2019-05-26T12:32:58.477Z,24.90
2019-05-26T12:35:26.576Z,24.00
2019-05-26T12:37:52.931Z,23.90
2019-05-26T12:40:19.317Z,24.10
2019-05-26T12:42:45.819Z,24.70
2019-05-26T12:45:14.509Z,24.80
2019-05-26T12:47:40.845Z,25.10
2019-05-26T12:50:08.611Z,25.60
2019-05-26T12:52:35.156Z,25.70
2019-05-26T12:55:01.322Z,25.40
2019-05-26T12:57:27.539Z,25.70
2019-05-26T12:59:53.746Z,25.70
2019-05-26T13:02:21.118Z,25.40
2019-05-26T13:04:47.300Z,25.30
2019-05-26T13:07:13.709Z,25.80
2019-05-26T13:09:39.898Z,25.90
2019-05-26T13:12:06.157Z,26.10
2019-05-26T13:14:32.349Z,25.90
2019-05-26T13:17:01.491Z,26.70
2019-05-26T13:19:26.604Z,26.80
2019-05-26T13:21:52.848Z,26.40
2019-05-26T13:24:19.031Z,26.10
2019-05-26T13:26:45.321Z,25.80
2019-05-26T13:29:11.575Z,24.80
2019-05-26T13:31:37.773Z,24.20
2019-05-26T13:34:04.166Z,24.00
2019-05-26T13:36:30.388Z,24.90
2019-05-26T13:39:16.488Z,25.00
2019-05-26T13:41:42.766Z,25.20
2019-05-26T13:44:09.058Z,25.00
2019-05-26T13:46:35.222Z,25.00
2019-05-26T13:49:01.419Z,24.90
2019-05-26T13:51:27.604Z,24.50
2019-05-26T13:53:53.796Z,24.60
2019-05-26T13:56:20.108Z,24.10
2019-05-26T13:58:46.304Z,24.20
2019-05-26T14:01:12.481Z,24.10
2019-05-26T14:03:38.676Z,23.80
2019-05-26T14:06:04.897Z,23.80
2019-05-26T14:08:31.188Z,23.50
2019-05-26T14:10:57.475Z,23.40
2019-05-26T14:13:23.645Z,23.10
2019-05-26T14:15:53.345Z,22.20
2019-05-26T14:18:22.357Z,22.10
2019-05-26T14:20:49.747Z,21.90
2019-05-26T14:23:15.929Z,21.80
2019-05-26T14:25:42.146Z,22.20
2019-05-26T14:28:08.513Z,22.40
2019-05-26T14:30:35.048Z,22.10
2019-05-26T14:33:01.451Z,22.80
2019-05-26T14:35:27.857Z,23.00
2019-05-26T14:37:54.023Z,23.20
2019-05-26T14:40:20.239Z,23.50
2019-05-26T14:42:46.421Z,23.80
2019-05-26T14:45:12.805Z,24.00
2019-05-26T14:47:39.070Z,23.90
2019-05-26T14:50:06.665Z,24.50
2019-05-26T14:52:32.828Z,24.60
2019-05-26T14:54:59.037Z,24.50
2019-05-26T14:57:25.204Z,24.30
2019-05-26T14:59:51.421Z,24.20
2019-05-26T15:02:17.636Z,24.00
2019-05-26T15:04:43.864Z,23.50
2019-05-26T15:07:10.106Z,23.60
2019-05-26T15:09:36.386Z,24.00
2019-05-26T15:12:03.051Z,24.00
2019-05-26T15:14:29.251Z,23.60
2019-05-26T15:16:55.515Z,23.40
2019-05-26T15:19:21.837Z,23.20
2019-05-26T15:21:48.096Z,22.90
2019-05-26T15:24:14.409Z,22.70
2019-05-26T15:26:40.670Z,22.70
2019-05-26T15:29:07.090Z,22.80
2019-05-26T15:31:33.268Z,22.70
2019-05-26T15:33:59.456Z,22.60
2019-05-26T15:36:25.628Z,22.90
2019-05-26T15:38:51.809Z,22.90
2019-05-26T15:41:18.181Z,23.00
2019-05-26T15:43:44.409Z,23.10
2019-05-26T15:46:24.145Z,23.30
2019-05-26T15:48:38.678Z,23.00
2019-05-26T15:51:04.840Z,22.90
2019-05-26T15:53:31.042Z,22.70
2019-05-26T15:55:57.206Z,22.40
2019-05-26T15:58:23.486Z,22.20
2019-05-26T16:00:49.655Z,22.10
2019-05-26T16:03:15.859Z,22.20
2019-05-26T16:05:42.043Z,22.10
2019-05-26T16:08:08.472Z,22.10
2019-05-26T16:10:34.679Z,22.10
2019-05-26T16:13:01.100Z,21.90
2019-05-26T16:15:27.291Z,21.80
2019-05-26T16:17:53.473Z,21.80
2019-05-26T16:20:19.778Z,21.60
2019-05-26T16:22:45.939Z,21.60
2019-05-26T16:25:12.967Z,21.60
2019-05-26T16:27:39.173Z,21.70
2019-05-26T16:30:07.048Z,21.60
2019-05-26T16:32:33.222Z,21.60
2019-05-26T16:34:59.405Z,21.50
2019-05-26T16:37:25.586Z,21.50
2019-05-26T16:39:51.794Z,21.40
2019-05-26T16:42:18.047Z,21.40
2019-05-26T16:44:44.317Z,21.40
2019-05-26T16:47:10.501Z,21.20
2019-05-26T16:49:36.665Z,21.10
2019-05-26T16:52:03.820Z,21.00
2019-05-26T16:54:30.081Z,21.00
2019-05-26T16:56:56.417Z,20.90
2019-05-26T16:59:22.612Z,20.80
2019-05-26T17:01:49.643Z,20.70
2019-05-26T17:04:15.928Z,20.60
2019-05-26T17:06:42.208Z,20.60
2019-05-26T17:09:08.501Z,20.60
2019-05-26T17:11:36.107Z,20.60
2019-05-26T17:14:02.622Z,20.50
2019-05-26T17:16:28.803Z,20.50
2019-05-26T17:18:55.430Z,20.40
2019-05-26T17:21:21.741Z,20.50
2019-05-26T17:23:48.452Z,20.40
2019-05-26T17:26:14.617Z,20.40
2019-05-26T17:28:40.928Z,20.30
2019-05-26T17:31:07.502Z,20.30
2019-05-26T17:33:33.819Z,20.10
2019-05-26T17:36:00.012Z,20.00
2019-05-26T17:38:27.972Z,20.10
2019-05-26T17:40:54.176Z,20.10
2019-05-26T17:43:20.345Z,20.10
2019-05-26T17:45:46.532Z,20.00
2019-05-26T17:48:12.697Z,19.90
2019-05-26T17:50:39.026Z,19.90
2019-05-26T17:53:05.207Z,19.80
2019-05-26T17:55:32.477Z,19.70
2019-05-26T17:57:58.952Z,19.60
2019-05-26T18:00:25.349Z,19.50
2019-05-26T18:02:51.531Z,19.50
2019-05-26T18:05:17.718Z,19.40
2019-05-26T18:07:44.041Z,19.30
2019-05-26T18:10:10.829Z,19.20
2019-05-26T18:12:36.994Z,19.20
2019-05-26T18:15:08.000Z,19.10
2019-05-26T18:17:46.471Z,19.10
2019-05-26T18:20:06.251Z,19.00
2019-05-26T18:22:32.880Z,19.00
2019-05-26T18:24:59.474Z,18.90
2019-05-26T18:27:25.947Z,18.70
2019-05-26T18:29:52.145Z,18.70
2019-05-26T18:32:18.468Z,18.50
2019-05-26T18:34:44.670Z,18.50
2019-05-26T18:37:11.929Z,18.40
2019-05-26T18:39:38.121Z,18.30
2019-05-26T18:42:04.417Z,18.20
2019-05-26T18:44:30.917Z,18.10
2019-05-26T18:46:57.083Z,18.00
2019-05-26T18:49:24.270Z,17.90
2019-05-26T18:51:51.408Z,17.70
2019-05-26T18:54:17.632Z,17.60
2019-05-26T18:56:43.812Z,17.40
2019-05-26T18:59:10.022Z,17.30
2019-05-26T19:01:36.233Z,17.20
2019-05-26T19:04:02.885Z,17.10
2019-05-26T19:06:29.269Z,17.00
2019-05-26T19:08:56.561Z,16.90
2019-05-26T19:11:22.777Z,16.90
2019-05-26T19:13:48.989Z,16.80
2019-05-26T19:16:15.188Z,16.60
2019-05-26T19:18:41.364Z,16.60
2019-05-26T19:21:07.532Z,16.40
2019-05-26T19:23:33.729Z,16.30
2019-05-26T19:25:59.928Z,16.20
2019-05-26T19:28:26.177Z,16.20
2019-05-26T19:30:52.409Z,16.10
2019-05-26T19:33:18.600Z,16.10
2019-05-26T19:35:46.053Z,16.00
2019-05-26T19:38:12.441Z,15.90
2019-05-26T19:40:38.617Z,15.90
2019-05-26T19:43:04.832Z,15.90
2019-05-26T19:45:31.027Z,15.90
2019-05-26T19:47:57.314Z,15.80
2019-05-26T19:50:23.485Z,15.70
2019-05-26T19:52:50.250Z,15.60
2019-05-26T19:55:16.660Z,15.40
2019-05-26T19:57:43.100Z,15.30
2019-05-26T20:00:11.214Z,15.20
2019-05-26T20:02:37.588Z,15.10
2019-05-26T20:05:06.039Z,15.10
2019-05-26T20:07:32.514Z,15.00
2019-05-26T20:09:58.789Z,14.90
2019-05-26T20:12:24.960Z,14.80
2019-05-26T20:14:51.200Z,14.60
2019-05-26T20:17:17.410Z,14.50
2019-05-26T20:19:43.580Z,14.50
2019-05-26T20:22:09.784Z,14.30
2019-05-26T20:24:35.964Z,14.20
2019-05-26T20:27:02.160Z,14.10
2019-05-26T20:29:28.384Z,14.10
2019-05-26T20:31:54.552Z,14.10
2019-05-26T20:34:21.809Z,14.00
2019-05-26T20:36:48.004Z,14.00
2019-05-26T20:39:14.497Z,13.90
2019-05-26T20:41:40.660Z,13.80
2019-05-26T20:44:06.825Z,13.70
2019-05-26T20:46:33.034Z,13.70
2019-05-26T20:48:59.233Z,13.60
2019-05-26T20:51:25.435Z,13.50
2019-05-26T20:53:52.590Z,13.40
2019-05-26T20:56:21.667Z,13.40
2019-05-26T20:58:47.829Z,13.50
2019-05-26T21:01:14.005Z,13.50
2019-05-26T21:03:40.170Z,13.60
2019-05-26T21:06:06.515Z,13.60
2019-05-26T21:08:32.701Z,13.60
2019-05-26T21:10:58.874Z,13.50
2019-05-26T21:13:25.070Z,13.50
2019-05-26T21:15:51.228Z,13.40
2019-05-26T21:18:17.434Z,13.40
2019-05-26T21:20:43.696Z,13.40
2019-05-26T21:23:09.881Z,13.30
2019-05-26T21:25:36.501Z,13.30
2019-05-26T21:28:02.676Z,13.30
2019-05-26T21:30:28.870Z,13.20
2019-05-26T21:32:55.048Z,13.20
2019-05-26T21:35:21.226Z,13.30
2019-05-26T21:37:47.404Z,13.30
2019-05-26T21:40:13.677Z,13.30
2019-05-26T21:42:39.840Z,13.20
2019-05-26T21:45:06.454Z,13.30
2019-05-26T21:47:32.633Z,13.20
2019-05-26T21:49:58.815Z,13.10
2019-05-26T21:52:24.999Z,13.00
2019-05-26T21:54:51.189Z,13.00
2019-05-26T21:57:17.365Z,12.90
2019-05-26T21:59:43.715Z,12.90
2019-05-26T22:02:10.134Z,12.90
2019-05-26T22:04:36.305Z,12.90
2019-05-26T22:07:03.174Z,12.80
2019-05-26T22:09:29.494Z,12.80
2019-05-26T22:11:55.705Z,12.80
2019-05-26T22:14:21.980Z,12.70
2019-05-26T22:16:48.222Z,12.70
2019-05-26T22:19:14.397Z,12.60
2019-05-26T22:21:40.577Z,12.60
2019-05-26T22:24:06.887Z,12.60
2019-05-26T22:26:33.130Z,12.60
2019-05-26T22:28:59.293Z,12.60
2019-05-26T22:31:25.496Z,12.50
2019-05-26T22:33:51.654Z,12.40
2019-05-26T22:36:17.841Z,12.40
2019-05-26T22:38:44.038Z,12.40
2019-05-26T22:41:10.308Z,12.30
2019-05-26T22:43:36.585Z,12.30
2019-05-26T22:46:02.862Z,12.20
2019-05-26T22:48:29.080Z,12.20
2019-05-26T22:50:55.293Z,12.10
2019-05-26T22:53:21.477Z,12.10
2019-05-26T22:55:47.632Z,12.10
2019-05-26T22:58:13.818Z,12.10
2019-05-26T23:00:39.973Z,12.00
2019-05-26T23:03:06.160Z,11.90
2019-05-26T23:05:32.319Z,11.90
2019-05-26T23:07:58.485Z,11.80
2019-05-26T23:10:25.942Z,11.70
2019-05-26T23:12:52.119Z,11.70
2019-05-26T23:15:18.351Z,11.60
2019-05-26T23:17:44.584Z,11.60
2019-05-26T23:20:11.362Z,11.60
2019-05-26T23:22:37.540Z,11.50
2019-05-26T23:25:04.612Z,11.50
2019-05-26T23:27:30.805Z,11.50
2019-05-26T23:29:56.973Z,11.50
2019-05-26T23:32:23.173Z,11.50
2019-05-26T23:34:49.395Z,11.50
2019-05-26T23:37:15.553Z,11.40
2019-05-26T23:39:41.737Z,11.30
2019-05-26T23:42:07.925Z,11.30
2019-05-26T23:44:34.105Z,11.20
2019-05-26T23:47:00.270Z,11.30
2019-05-26T23:49:26.515Z,11.30
2019-05-26T23:51:52.696Z,11.20
2019-05-26T23:54:18.884Z,11.20
2019-05-26T23:56:45.054Z,11.10
2019-05-26T23:59:11.255Z,11.10
